Time;durP1;ratioP1;P1;durP2;ratioP2;P2;SDS_P1;SDS_P2;PMS_P1;PMS_P2;Temp;Humidity;BMP_temperature;BMP_pressure;BME280_temperature;BME280_humidity;BME280_pressure;Samples;Min_cycle;Max_cycle;Signal;HPM_P1;HPM_P2
2022/01/13 00:01:43;;;;;;;27.58;9.82;;;-6.00;99.90;;;;;;5149906;28;20166;-76
2022/01/13 00:04:13;;;;;;;16.23;8.00;;;-6.00;99.90;;;;;;5149948;28;20193;-75
2022/01/13 00:06:40;;;;;;;20.05;9.13;;;-6.10;99.90;;;;;;5137997;28;20166;-76
2022/01/13 00:09:07;;;;;;;20.42;9.77;;;-6.10;99.90;;;;;;5110983;28;20209;-76
2022/01/13 00:11:33;;;;;;;15.73;8.98;;;-6.10;99.90;;;;;;5129258;28;20178;-76
2022/01/13 00:14:23;;;;;;;21.75;9.00;;;-6.10;99.90;;;;;;5129175;28;20185;-75
2022/01/13 00:24:44;;;;;;;20.35;10.00;;;-5.80;99.90;;;;;;5132658;28;20191;-75
2022/01/13 00:27:14;;;;;;;20.90;11.68;;;-5.70;99.90;;;;;;5132618;28;20147;-77
2022/01/13 00:29:41;;;;;;;18.23;9.52;;;-5.80;99.90;;;;;;5132572;28;20190;-77
2022/01/13 00:32:12;;;;;;;19.20;8.90;;;-5.90;99.90;;;;;;5114391;28;20530;-75
2022/01/13 00:34:41;;;;;;;13.52;8.65;;;-5.90;99.90;;;;;;5132552;28;20197;-76
2022/01/13 00:37:10;;;;;;;18.65;9.25;;;-6.00;99.90;;;;;;5132700;28;20155;-75
2022/01/13 00:39:36;;;;;;;16.55;9.20;;;-6.10;99.90;;;;;;5130552;28;20218;-75
2022/01/13 00:42:03;;;;;;;17.88;9.25;;;-6.20;99.90;;;;;;5132420;28;20175;-76
2022/01/13 00:44:35;;;;;;;12.75;7.93;;;-6.30;99.90;;;;;;5132265;28;20190;-76
2022/01/13 00:47:05;;;;;;;21.23;10.65;;;-6.30;99.90;;;;;;5132458;28;20185;-76
2022/01/13 00:49:31;;;;;;;16.90;9.30;;;-6.10;99.90;;;;;;5113925;28;20290;-75
2022/01/13 00:51:57;;;;;;;22.17;12.25;;;-6.20;99.90;;;;;;5152976;27;20154;-78
2022/01/13 00:54:24;;;;;;;24.15;9.95;;;-6.30;99.90;;;;;;5152891;27;20190;-77
2022/01/13 00:56:51;;;;;;;14.30;7.97;;;-6.30;99.90;;;;;;5152746;27;20156;-75
2022/01/13 00:59:17;;;;;;;20.45;9.43;;;-6.20;99.90;;;;;;5133641;27;20222;-75
2022/01/13 01:01:46;;;;;;;22.98;11.05;;;-6.20;99.90;;;;;;5152763;27;20634;-76
2022/01/13 01:04:13;;;;;;;25.30;11.52;;;-6.20;99.90;;;;;;5134287;27;20261;-75
2022/01/13 01:06:39;;;;;;;21.83;11.55;;;-6.20;99.90;;;;;;5134146;27;20174;-76
2022/01/13 01:09:20;;;;;;;28.05;10.52;;;-6.20;99.90;;;;;;5134150;27;20194;-76
2022/01/13 01:11:48;;;;;;;19.30;10.10;;;-6.20;99.90;;;;;;5152661;27;20154;-76
2022/01/13 01:14:20;;;;;;;17.58;9.85;;;-6.40;99.90;;;;;;5152512;27;20284;-76
2022/01/13 01:16:47;;;;;;;24.15;10.30;;;-6.50;99.90;;;;;;5133979;27;20646;-76
2022/01/13 01:19:14;;;;;;;21.83;10.65;;;-6.60;99.90;;;;;;5134003;27;20187;-76
2022/01/13 01:26:51;;;;;;;26.13;12.90;;;-6.70;99.90;;;;;;5152310;27;20175;-76
2022/01/13 01:29:25;;;;;;;32.20;15.77;;;-6.50;99.90;;;;;;5152268;27;20252;-76
2022/01/13 01:31:54;;;;;;;24.10;10.35;;;-6.40;99.90;;;;;;5152216;27;20150;-76
2022/01/13 01:34:37;;;;;;;21.40;12.07;;;-6.40;99.90;;;;;;5151675;27;20205;-76
2022/01/13 01:37:13;;;;;;;26.58;11.30;;;-6.50;99.90;;;;;;5152190;27;20169;-75
2022/01/13 01:39:40;;;;;;;20.52;11.60;;;-6.60;99.90;;;;;;5149538;27;20154;-75
2022/01/13 01:42:07;;;;;;;25.67;12.35;;;-6.70;99.90;;;;;;5130881;28;20178;-76
2022/01/13 01:44:37;;;;;;;21.05;11.70;;;-6.70;99.90;;;;;;5112920;28;20205;-76
2022/01/13 01:47:05;;;;;;;24.67;12.18;;;-6.80;99.90;;;;;;5112908;28;20166;-75
2022/01/13 01:49:38;;;;;;;26.13;12.85;;;-6.80;99.90;;;;;;5112979;28;20272;-75
2022/01/13 01:52:09;;;;;;;29.58;11.68;;;-6.80;99.90;;;;;;5110670;28;20193;-75
2022/01/13 01:54:38;;;;;;;22.13;12.35;;;-6.70;99.90;;;;;;5109119;28;20207;-74
2022/01/13 01:57:05;;;;;;;26.30;13.32;;;-6.60;99.90;;;;;;5110869;28;20239;-75
2022/01/13 01:59:34;;;;;;;21.75;10.57;;;-6.70;99.90;;;;;;5110312;28;20215;-76
2022/01/13 02:02:00;;;;;;;20.65;10.43;;;-6.80;99.90;;;;;;5109401;28;20652;-76
2022/01/13 02:04:27;;;;;;;19.13;11.02;;;-6.80;99.90;;;;;;5110342;28;20191;-76
2022/01/13 02:07:02;;;;;;;22.42;12.15;;;-6.80;99.90;;;;;;5110536;28;20152;-76
2022/01/13 02:09:28;;;;;;;21.95;12.23;;;-6.80;99.90;;;;;;5110357;28;20190;-75
2022/01/13 02:11:58;;;;;;;24.98;12.52;;;-6.80;99.90;;;;;;5110416;28;20159;-75
2022/01/13 02:16:56;;;;;;;23.00;10.93;;;-6.90;99.90;;;;;;5110351;28;20162;-75
2022/01/13 02:19:26;;;;;;;16.38;9.13;;;-6.90;99.90;;;;;;5110041;28;20227;-76
2022/01/13 02:21:52;;;;;;;27.70;13.43;;;-6.90;99.90;;;;;;5091881;28;20648;-76
2022/01/13 02:24:18;;;;;;;25.70;11.75;;;-7.00;99.90;;;;;;5110124;28;20191;-76
2022/01/13 02:26:45;;;;;;;19.30;10.80;;;-6.90;99.90;;;;;;5110153;28;20193;-76
2022/01/13 02:29:10;;;;;;;19.85;10.32;;;-6.90;99.90;;;;;;5091926;28;20203;-76
2022/01/13 02:31:38;;;;;;;18.75;10.77;;;-6.90;99.90;;;;;;5108739;28;20262;-75
2022/01/13 02:34:04;;;;;;;16.48;9.68;;;-6.90;99.90;;;;;;5091791;28;20761;-75
2022/01/13 02:36:34;;;;;;;27.45;10.32;;;-7.00;99.90;;;;;;5091586;28;20175;-75
2022/01/13 02:39:00;;;;;;;20.73;11.32;;;-7.10;99.90;;;;;;5108679;28;20183;-75
2022/01/13 02:41:28;;;;;;;28.13;12.32;;;-7.10;99.90;;;;;;5121984;27;20174;-75
2022/01/13 02:43:58;;;;;;;24.17;9.48;;;-7.00;99.90;;;;;;5131880;27;20213;-75
2022/01/13 02:49:14;;;;;;;20.17;11.75;;;-7.20;99.90;;;;;;5150874;27;20197;-77
2022/01/13 02:51:43;;;;;;;25.42;9.98;;;-7.30;99.90;;;;;;5150738;27;20168;-76
2022/01/13 02:54:08;;;;;;;23.50;11.48;;;-7.30;99.90;;;;;;5150679;27;20186;-75
2022/01/13 02:56:36;;;;;;;17.38;10.23;;;-7.30;99.90;;;;;;5150526;27;20157;-75
2022/01/13 02:59:03;;;;;;;16.10;9.77;;;-7.30;99.90;;;;;;5128618;28;20229;-76
2022/01/13 03:01:33;;;;;;;14.48;8.45;;;-7.30;99.90;;;;;;5111821;28;20227;-77
2022/01/13 03:04:03;;;;;;;24.20;12.50;;;-7.40;99.90;;;;;;5129956;28;20201;-76
2022/01/13 03:06:35;;;;;;;21.73;11.43;;;-7.40;99.90;;;;;;5129877;28;20155;-75
2022/01/13 03:09:05;;;;;;;15.90;9.02;;;-7.20;99.90;;;;;;5111477;28;20197;-78
2022/01/13 03:11:36;;;;;;;17.20;9.93;;;-7.20;99.90;;;;;;5129902;28;20243;-78
2022/01/13 03:14:05;;;;;;;25.10;11.43;;;-7.20;99.90;;;;;;5129775;28;20214;-77
2022/01/13 03:16:35;;;;;;;19.45;9.82;;;-7.30;99.90;;;;;;5129707;28;20143;-75
2022/01/13 03:19:01;;;;;;;19.83;10.65;;;-7.30;99.90;;;;;;5129717;28;20233;-77
2022/01/13 03:21:26;;;;;;;30.10;11.23;;;-7.40;99.90;;;;;;5129670;28;20159;-76
2022/01/13 03:23:54;;;;;;;21.00;10.70;;;-7.50;99.90;;;;;;5129580;28;20216;-75
2022/01/13 03:26:21;;;;;;;21.48;10.30;;;-7.50;99.90;;;;;;5129695;28;20204;-75
2022/01/13 03:28:53;;;;;;;19.30;11.23;;;-7.50;99.90;;;;;;5129639;28;20253;-76
2022/01/13 03:31:23;;;;;;;17.63;10.52;;;-7.50;99.90;;;;;;5129692;28;20151;-75
2022/01/13 03:33:53;;;;;;;21.05;10.48;;;-7.50;99.90;;;;;;5111165;28;20221;-77
2022/01/13 03:36:19;;;;;;;24.13;11.63;;;-7.50;99.90;;;;;;5111204;28;20163;-76
2022/01/13 03:38:45;;;;;;;16.27;8.47;;;-7.40;99.90;;;;;;5111226;28;20189;-75
2022/01/13 03:41:13;;;;;;;19.17;12.33;;;-7.40;99.90;;;;;;5128828;28;20182;-77
2022/01/13 03:43:40;;;;;;;22.90;11.00;;;-7.50;99.90;;;;;;5129441;28;20655;-75
2022/01/13 03:46:07;;;;;;;21.33;9.63;;;-7.50;99.90;;;;;;5129345;28;20210;-75
2022/01/13 03:48:33;;;;;;;22.83;10.10;;;-7.20;99.90;;;;;;5129536;28;20187;-77
2022/01/13 03:50:59;;;;;;;21.85;11.00;;;-7.30;99.90;;;;;;5129419;28;20169;-78
2022/01/13 03:53:28;;;;;;;24.17;9.93;;;-7.20;99.90;;;;;;5129421;28;20190;-77
2022/01/13 03:56:31;;;;;;;27.23;11.63;;;-7.20;99.90;;;;;;5129032;28;20609;-77
2022/01/13 03:59:30;;;;;;;21.40;11.80;;;-7.30;99.90;;;;;;5131888;28;20214;-78
2022/01/13 04:02:05;;;;;;;17.50;9.77;;;-7.40;99.90;;;;;;5133386;28;20708;-78
2022/01/13 04:04:37;;;;;;;16.70;10.93;;;-7.30;99.90;;;;;;5132008;28;20190;-77
2022/01/13 04:07:23;;;;;;;17.40;9.98;;;-7.40;99.90;;;;;;5133186;28;20162;-76
2022/01/13 04:09:49;;;;;;;15.50;9.63;;;-7.40;99.90;;;;;;5133239;28;20201;-77
2022/01/13 04:12:19;;;;;;;19.57;10.07;;;-7.40;99.90;;;;;;5133196;28;20148;-78
2022/01/13 04:14:49;;;;;;;17.73;8.50;;;-7.30;99.90;;;;;;5133019;28;20183;-78
2022/01/13 04:17:19;;;;;;;20.17;10.00;;;-7.30;99.90;;;;;;5133053;28;20147;-77
2022/01/13 04:19:47;;;;;;;21.20;11.60;;;-7.20;99.90;;;;;;5132965;28;20158;-77
2022/01/13 04:22:14;;;;;;;23.98;11.27;;;-7.20;99.90;;;;;;5132915;28;20190;-77
2022/01/13 04:24:45;;;;;;;22.42;10.05;;;-7.30;99.90;;;;;;5131409;28;20247;-77
2022/01/13 04:27:21;;;;;;;21.27;11.53;;;-7.30;99.90;;;;;;5132951;28;20166;-77
2022/01/13 04:29:49;;;;;;;23.42;11.13;;;-7.40;99.90;;;;;;5131383;28;20185;-77
2022/01/13 04:32:15;;;;;;;16.67;10.02;;;-7.40;99.90;;;;;;5132623;28;20154;-77
2022/01/13 04:34:41;;;;;;;24.20;10.20;;;-7.50;99.90;;;;;;5131503;28;20216;-75
2022/01/13 04:37:07;;;;;;;20.60;11.07;;;-7.50;99.90;;;;;;5132626;28;20159;-76
2022/01/13 04:39:33;;;;;;;24.20;10.83;;;-7.40;99.90;;;;;;5132314;28;20214;-75
2022/01/13 04:42:02;;;;;;;18.00;8.67;;;-7.50;99.90;;;;;;5131889;28;20175;-76
2022/01/13 04:44:34;;;;;;;19.83;9.15;;;-7.50;99.90;;;;;;5130980;28;20201;-76
2022/01/13 04:46:59;;;;;;;23.02;9.95;;;-7.50;99.90;;;;;;5130818;28;20206;-76
2022/01/13 04:49:25;;;;;;;10.17;6.87;;;-7.60;99.90;;;;;;5132138;28;20197;-76
2022/01/13 04:51:51;;;;;;;27.23;11.63;;;-7.60;99.90;;;;;;5132166;28;20192;-76
2022/01/13 04:54:17;;;;;;;23.08;10.15;;;-7.60;99.90;;;;;;5132201;28;20190;-75
2022/01/13 04:57:04;;;;;;;18.60;9.43;;;-7.60;99.90;;;;;;5116100;28;20191;-76
2022/01/13 04:59:32;;;;;;;13.83;9.27;;;-7.60;99.90;;;;;;5123086;28;20338;-77
2022/01/13 05:02:00;;;;;;;18.23;9.07;;;-7.30;99.90;;;;;;5125257;28;20650;-77
2022/01/13 05:04:26;;;;;;;24.70;8.83;;;-7.20;99.90;;;;;;5131919;28;20193;-76
2022/01/13 05:06:52;;;;;;;14.57;8.63;;;-6.90;99.90;;;;;;5113879;28;20206;-72
2022/01/13 05:09:18;;;;;;;13.32;7.28;;;-7.00;99.90;;;;;;5131236;28;20205;-71
2022/01/13 05:11:44;;;;;;;17.15;8.25;;;-6.90;99.90;;;;;;5131899;28;20158;-72
2022/01/13 05:14:13;;;;;;;20.95;8.65;;;-7.00;99.90;;;;;;5098473;28;20171;-72
2022/01/13 05:16:57;;;;;;;15.57;9.20;;;-7.10;99.90;;;;;;5111276;28;20213;-72
2022/01/13 05:19:30;;;;;;;15.63;8.93;;;-7.20;99.90;;;;;;5111350;28;20621;-71
2022/01/13 05:22:15;;;;;;;11.98;6.95;;;-7.20;99.90;;;;;;5111174;28;20164;-71
2022/01/13 05:24:44;;;;;;;12.03;8.07;;;-7.20;99.90;;;;;;5111268;28;20179;-72
2022/01/13 05:27:10;;;;;;;14.18;6.82;;;-7.30;99.90;;;;;;5111015;28;20254;-72
2022/01/13 05:29:36;;;;;;;13.97;7.00;;;-7.30;99.90;;;;;;5094279;28;20199;-71
2022/01/13 05:32:02;;;;;;;8.73;7.13;;;-7.40;99.90;;;;;;5131567;28;20170;-71
2022/01/13 05:34:28;;;;;;;17.63;9.00;;;-7.50;99.90;;;;;;5131060;28;20212;-71
2022/01/13 05:36:57;;;;;;;21.95;7.45;;;-7.50;99.90;;;;;;5112100;28;20170;-73
2022/01/13 05:39:23;;;;;;;18.77;8.07;;;-7.40;99.90;;;;;;5112913;28;20238;-72
2022/01/13 05:41:48;;;;;;;16.15;7.32;;;-7.40;99.90;;;;;;5131525;28;20224;-72
2022/01/13 05:44:14;;;;;;;11.07;7.80;;;-7.40;99.90;;;;;;5131007;28;20198;-72
2022/01/13 05:46:40;;;;;;;13.38;8.32;;;-7.50;99.90;;;;;;5131264;28;20607;-72
2022/01/13 05:49:06;;;;;;;18.55;8.43;;;-7.50;99.90;;;;;;5131189;28;20197;-73
2022/01/13 05:51:33;;;;;;;20.40;9.88;;;-7.50;99.90;;;;;;5131048;28;20158;-72
2022/01/13 05:53:59;;;;;;;17.38;8.10;;;-7.50;99.90;;;;;;5112391;28;20190;-72
2022/01/13 05:56:25;;;;;;;19.48;10.77;;;-7.40;99.90;;;;;;5130809;28;20166;-72
2022/01/13 05:58:51;;;;;;;17.33;8.50;;;-7.50;99.90;;;;;;5112378;28;20214;-71
2022/01/13 06:01:17;;;;;;;17.47;10.60;;;-7.50;99.90;;;;;;5130581;28;20532;-72
2022/01/13 06:03:43;;;;;;;20.03;7.40;;;-7.50;99.90;;;;;;5130440;28;20213;-73
2022/01/13 06:06:09;;;;;;;17.17;9.07;;;-7.60;99.90;;;;;;5112251;28;20174;-72
2022/01/13 06:08:36;;;;;;;19.75;9.18;;;-7.60;99.90;;;;;;5112173;28;20202;-73
2022/01/13 06:11:02;;;;;;;15.05;10.10;;;-7.60;99.90;;;;;;5130191;28;20177;-72
2022/01/13 06:13:28;;;;;;;19.05;9.18;;;-7.50;99.90;;;;;;5130365;28;20183;-72
2022/01/13 06:15:55;;;;;;;22.47;9.20;;;-7.60;99.90;;;;;;5130405;28;20174;-74
2022/01/13 06:18:25;;;;;;;20.87;8.93;;;-7.60;99.90;;;;;;5139885;27;20238;-71
2022/01/13 06:20:53;;;;;;;16.35;7.68;;;-7.70;99.90;;;;;;5149739;27;20199;-72
2022/01/13 06:23:19;;;;;;;18.73;10.37;;;-7.60;99.90;;;;;;5150562;27;20200;-72
2022/01/13 06:25:45;;;;;;;20.50;9.00;;;-7.60;99.90;;;;;;5150578;27;20165;-73
2022/01/13 06:28:11;;;;;;;15.07;8.55;;;-7.60;99.90;;;;;;5131295;27;20203;-72
2022/01/13 06:30:37;;;;;;;26.13;10.95;;;-7.60;99.90;;;;;;5147261;27;20154;-72
2022/01/13 06:33:06;;;;;;;19.67;10.48;;;-7.50;99.90;;;;;;5149230;27;20627;-74
2022/01/13 06:35:32;;;;;;;23.30;11.75;;;-7.30;99.90;;;;;;5131727;27;20173;-72
2022/01/13 06:37:58;;;;;;;18.42;9.52;;;-7.20;99.90;;;;;;5150038;27;20225;-72
2022/01/13 06:40:24;;;;;;;25.40;11.45;;;-7.10;99.90;;;;;;5149531;27;20165;-72
2022/01/13 06:42:50;;;;;;;13.60;8.73;;;-7.00;99.90;;;;;;5150539;27;20253;-72
2022/01/13 06:45:16;;;;;;;25.15;10.05;;;-7.00;99.90;;;;;;5132113;27;20166;-71
2022/01/13 06:47:42;;;;;;;15.68;9.63;;;-7.10;99.90;;;;;;5132033;27;20177;-72
2022/01/13 06:50:11;;;;;;;19.75;9.45;;;-7.10;99.90;;;;;;5149786;27;20162;-72
2022/01/13 06:52:37;;;;;;;18.80;11.27;;;-7.00;99.90;;;;;;5150249;27;20194;-73
2022/01/13 06:55:04;;;;;;;15.77;8.07;;;-7.00;99.90;;;;;;5150210;27;20241;-72
2022/01/13 06:57:30;;;;;;;20.77;10.20;;;-7.00;99.90;;;;;;5131902;27;20166;-72
2022/01/13 06:59:56;;;;;;;16.23;9.25;;;-7.10;99.90;;;;;;5124040;28;20243;-71
2022/01/13 07:02:24;;;;;;;11.20;8.63;;;-7.00;99.90;;;;;;5120403;28;20167;-73
2022/01/13 07:04:50;;;;;;;13.77;8.90;;;-6.90;99.90;;;;;;5119030;28;20163;-72
2022/01/13 07:07:16;;;;;;;22.17;10.85;;;-6.80;99.90;;;;;;5107797;28;20162;-72
2022/01/13 07:09:43;;;;;;;21.98;11.32;;;-6.70;99.90;;;;;;5108309;28;20195;-73
2022/01/13 07:12:10;;;;;;;17.25;10.27;;;-6.70;99.90;;;;;;5090943;28;20266;-73
2022/01/13 07:14:37;;;;;;;20.25;11.82;;;-6.70;99.90;;;;;;5109134;28;20155;-73
2022/01/13 07:17:04;;;;;;;18.38;10.75;;;-6.60;99.90;;;;;;5114367;28;20162;-72
2022/01/13 07:19:30;;;;;;;23.20;11.00;;;-6.50;99.90;;;;;;5129336;28;20159;-72
2022/01/13 07:21:56;;;;;;;28.58;11.70;;;-6.40;99.90;;;;;;5110605;28;20217;-72
2022/01/13 07:24:22;;;;;;;20.85;12.35;;;-6.40;99.90;;;;;;5129474;28;20162;-72
2022/01/13 07:26:48;;;;;;;24.42;12.18;;;-6.00;99.90;;;;;;5128452;28;20162;-72
2022/01/13 07:29:14;;;;;;;24.13;12.73;;;-5.50;99.90;;;;;;5110499;28;20194;-73
2022/01/13 07:31:40;;;;;;;22.50;12.48;;;-5.60;99.90;;;;;;5129680;28;20194;-72
2022/01/13 07:34:06;;;;;;;30.30;15.25;;;-5.80;99.90;;;;;;5130961;28;20175;-72
2022/01/13 07:36:33;;;;;;;26.23;13.45;;;-5.80;99.90;;;;;;5120763;28;20699;-73
2022/01/13 07:38:59;;;;;;;47.00;14.43;;;-5.70;99.90;;;;;;5127458;28;20159;-73
2022/01/13 07:41:25;;;;;;;33.45;15.77;;;-5.70;99.90;;;;;;5108756;28;20198;-72
2022/01/13 07:43:54;;;;;;;24.55;12.05;;;-5.70;99.90;;;;;;5110453;28;20223;-72
2022/01/13 07:46:23;;;;;;;24.95;15.52;;;-5.70;99.90;;;;;;5111428;28;20147;-72
2022/01/13 07:48:49;;;;;;;20.77;11.88;;;-5.80;99.90;;;;;;5112650;28;20579;-73
2022/01/13 07:51:16;;;;;;;20.95;13.55;;;-5.70;99.90;;;;;;5096605;28;20195;-73
2022/01/13 07:53:42;;;;;;;26.95;14.45;;;-5.50;99.90;;;;;;5112621;28;20219;-73
2022/01/13 07:56:08;;;;;;;35.58;14.35;;;-5.20;99.90;;;;;;5112863;28;20198;-73
2022/01/13 07:58:35;;;;;;;28.65;13.05;;;-5.00;99.90;;;;;;5112286;28;20199;-73
2022/01/13 08:01:02;;;;;;;31.38;14.07;;;-4.70;99.90;;;;;;5112737;28;20160;-73
2022/01/13 08:03:28;;;;;;;33.55;14.88;;;-4.50;99.90;;;;;;5112790;28;20167;-73
2022/01/13 08:05:54;;;;;;;32.17;14.73;;;-4.30;99.90;;;;;;5112668;28;20159;-73
2022/01/13 08:08:20;;;;;;;31.17;15.55;;;-4.10;99.90;;;;;;5112313;28;20212;-74
2022/01/13 08:10:46;;;;;;;32.08;15.15;;;-4.00;99.90;;;;;;5094181;28;20172;-74
2022/01/13 08:13:13;;;;;;;38.83;18.63;;;-3.30;99.90;;;;;;5112517;28;20144;-74
2022/01/13 08:15:40;;;;;;;34.15;19.35;;;-2.10;99.90;;;;;;5112325;28;20156;-76
2022/01/13 08:20:52;;;;;;;43.47;21.95;;;-1.30;99.90;;;;;;5114528;28;20225;-73
2022/01/13 08:23:18;;;;;;;50.95;24.30;;;0.20;99.90;;;;;;5112239;28;20529;-75
2022/01/13 08:25:44;;;;;;;71.38;32.30;;;1.90;99.90;;;;;;5093998;28;20171;-75
2022/01/13 08:28:11;;;;;;;77.07;33.97;;;4.00;99.90;;;;;;5093682;28;20221;-75
2022/01/13 08:30:38;;;;;;;59.28;30.50;;;5.30;99.90;;;;;;5131390;28;20249;-75
2022/01/13 08:33:03;;;;;;;46.00;24.27;;;6.20;99.90;;;;;;5132666;28;20151;-75
2022/01/13 08:35:29;;;;;;;35.08;17.98;;;5.30;99.90;;;;;;5132515;28;20178;-75
2022/01/13 08:38:01;;;;;;;29.88;16.67;;;5.80;99.90;;;;;;5112308;28;20181;-76
2022/01/13 08:40:27;;;;;;;32.03;15.85;;;7.20;99.90;;;;;;5132525;28;20151;-75
2022/01/13 08:42:52;;;;;;;28.90;14.68;;;7.60;99.90;;;;;;5132520;28;20220;-76
2022/01/13 08:45:18;;;;;;;33.22;15.25;;;6.60;99.90;;;;;;5113860;28;20166;-76
2022/01/13 08:47:44;;;;;;;28.85;15.57;;;5.70;99.90;;;;;;5114744;28;20207;-75
2022/01/13 08:50:10;;;;;;;31.50;15.45;;;5.60;99.90;;;;;;5111717;28;20163;-76
2022/01/13 08:52:38;;;;;;;27.98;15.32;;;6.20;99.90;;;;;;5093408;28;20179;-76
2022/01/13 08:55:06;;;;;;;29.15;15.38;;;6.50;99.90;;;;;;5123865;28;20674;-75
2022/01/13 08:57:33;;;;;;;33.13;15.90;;;6.10;99.90;;;;;;5128908;28;20194;-76
2022/01/13 08:59:59;;;;;;;26.15;15.07;;;6.60;99.90;;;;;;5131725;28;20304;-76
2022/01/13 09:02:25;;;;;;;24.15;14.48;;;6.70;99.90;;;;;;5113747;28;20179;-76
2022/01/13 09:04:51;;;;;;;25.58;15.57;;;7.50;99.90;;;;;;5112366;28;20182;-76
2022/01/13 09:07:17;;;;;;;25.08;14.57;;;7.90;99.90;;;;;;5113551;28;20194;-76
2022/01/13 09:09:43;;;;;;;23.67;14.10;;;7.50;99.90;;;;;;5131715;28;20657;-76
2022/01/13 09:12:09;;;;;;;31.83;13.48;;;7.30;99.90;;;;;;5113688;28;20649;-74
2022/01/13 09:14:38;;;;;;;24.98;12.45;;;7.10;99.90;;;;;;5109635;28;20179;-77
2022/01/13 09:17:09;;;;;;;26.45;13.88;;;7.50;99.90;;;;;;5093071;28;20221;-77
2022/01/13 09:19:35;;;;;;;29.17;14.40;;;7.40;99.90;;;;;;5093006;28;20251;-76
2022/01/13 09:22:01;;;;;;;20.58;13.52;;;7.70;99.90;;;;;;5098683;28;20178;-76
2022/01/13 09:24:26;;;;;;;23.48;13.18;;;7.30;99.90;;;;;;5130779;28;20163;-76
2022/01/13 09:26:52;;;;;;;26.15;13.38;;;6.70;99.90;;;;;;5131435;28;20196;-76
2022/01/13 09:29:19;;;;;;;29.67;13.15;;;6.60;99.90;;;;;;5105353;28;20194;-73
2022/01/13 09:31:45;;;;;;;26.33;12.30;;;7.00;99.90;;;;;;5097725;28;20179;-75
2022/01/13 09:34:12;;;;;;;22.52;11.00;;;6.70;99.90;;;;;;5092711;28;20187;-75
2022/01/13 09:36:39;;;;;;;28.33;11.50;;;6.40;99.90;;;;;;5093696;28;20191;-75
2022/01/13 09:39:07;;;;;;;25.83;13.65;;;6.00;99.90;;;;;;5093068;28;20179;-74
2022/01/13 09:41:34;;;;;;;31.45;12.63;;;6.40;99.90;;;;;;5092622;28;20193;-75
2022/01/13 09:44:04;;;;;;;29.52;12.82;;;6.50;99.90;;;;;;5092174;28;20191;-74
2022/01/13 09:46:31;;;;;;;25.08;13.40;;;6.20;99.90;;;;;;5119922;28;20199;-78
2022/01/13 09:49:02;;;;;;;27.55;13.00;;;5.60;99.90;;;;;;5130754;28;20274;-80
2022/01/13 09:51:29;;;;;;;29.85;13.82;;;5.40;99.90;;;;;;5112028;28;20224;-78
2022/01/13 09:53:55;;;;;;;21.77;12.23;;;5.70;99.90;;;;;;5106067;28;20193;-76
2022/01/13 09:56:21;;;;;;;31.15;13.80;;;6.00;99.90;;;;;;5126862;28;20207;-76
2022/01/13 09:58:47;;;;;;;28.15;14.50;;;6.10;99.90;;;;;;5091907;28;20207;-75
2022/01/13 10:01:14;;;;;;;31.48;14.43;;;5.90;99.90;;;;;;5111191;28;20222;-75
2022/01/13 10:03:40;;;;;;;27.73;14.35;;;6.20;99.90;;;;;;5091889;28;20171;-76
2022/01/13 10:06:11;;;;;;;27.08;13.50;;;6.00;99.90;;;;;;5112928;28;20183;-76
2022/01/13 10:08:46;;;;;;;29.35;15.40;;;6.20;99.90;;;;;;5115587;28;20191;-76
2022/01/13 10:11:58;;;;;;;29.58;13.90;;;5.90;99.90;;;;;;5111701;28;20276;-76
2022/01/13 10:17:07;;;;;;;35.15;13.82;;;6.80;99.90;;;;;;5110114;28;20188;-75
2022/01/13 10:19:45;;;;;;;27.10;13.63;;;7.50;99.90;;;;;;5091608;28;20178;-78
2022/01/13 10:22:14;;;;;;;23.50;12.85;;;8.10;99.90;;;;;;5108905;28;20305;-76
2022/01/13 10:24:42;;;;;;;23.23;13.32;;;9.10;99.90;;;;;;5110541;28;20174;-75
2022/01/13 10:27:20;;;;;;;22.90;12.50;;;9.40;99.90;;;;;;5127713;28;20196;-77
2022/01/13 10:29:55;;;;;;;24.20;12.55;;;8.80;99.90;;;;;;5124207;28;20202;-76
2022/01/13 10:32:23;;;;;;;22.08;12.30;;;7.40;99.90;;;;;;5102583;28;20215;-76
2022/01/13 10:35:07;;;;;;;27.48;11.95;;;6.70;99.90;;;;;;5100244;28;20233;-76
2022/01/13 10:37:35;;;;;;;26.52;12.48;;;6.80;99.90;;;;;;5109786;28;20166;-76
2022/01/13 10:40:08;;;;;;;22.50;12.32;;;7.50;99.90;;;;;;5110216;28;20178;-76
2022/01/13 10:45:05;;;;;;;31.23;12.73;;;9.40;99.90;;;;;;5129958;28;20162;-75
2022/01/13 10:47:31;;;;;;;20.65;11.82;;;10.30;99.90;;;;;;5129754;28;20193;-76
2022/01/13 10:50:14;;;;;;;32.38;13.38;;;10.40;99.90;;;;;;5129951;28;20186;-76
2022/01/13 10:52:41;;;;;;;39.75;13.57;;;11.00;99.90;;;;;;5129885;28;20213;-76
2022/01/13 10:55:13;;;;;;;24.77;12.48;;;11.10;99.30;;;;;;5129718;28;20146;-75
2022/01/13 10:57:42;;;;;;;22.70;11.45;;;11.00;98.50;;;;;;5129877;28;20155;-76
2022/01/13 11:00:17;;;;;;;25.55;12.35;;;9.30;99.90;;;;;;5092759;28;20222;-75
2022/01/13 11:03:10;;;;;;;32.92;12.65;;;9.80;99.90;;;;;;5091032;28;20274;-75
2022/01/13 11:05:40;;;;;;;27.27;12.52;;;9.80;99.90;;;;;;5096359;28;20234;-75
2022/01/13 11:08:09;;;;;;;24.35;12.50;;;9.60;99.90;;;;;;5090966;28;20215;-75
2022/01/13 11:10:37;;;;;;;20.17;11.43;;;8.90;99.90;;;;;;5110322;28;20179;-75
2022/01/13 11:13:06;;;;;;;25.42;11.60;;;8.50;99.90;;;;;;5101915;28;20214;-76
2022/01/13 11:15:34;;;;;;;23.65;12.43;;;8.00;99.90;;;;;;5106255;28;20172;-75
2022/01/13 11:18:02;;;;;;;22.70;11.70;;;7.90;99.90;;;;;;5122121;28;20266;-75
2022/01/13 11:20:29;;;;;;;28.90;12.57;;;7.80;99.90;;;;;;5109637;28;20190;-76
2022/01/13 11:22:57;;;;;;;23.17;11.27;;;8.10;99.90;;;;;;5111117;28;20166;-75
2022/01/13 11:25:26;;;;;;;26.02;11.68;;;8.50;99.90;;;;;;5129631;28;20155;-75
2022/01/13 11:27:53;;;;;;;24.00;11.48;;;8.70;99.90;;;;;;5129320;28;20183;-75
2022/01/13 11:30:22;;;;;;;19.00;10.45;;;9.10;99.90;;;;;;5109954;28;20197;-75
2022/01/13 11:32:48;;;;;;;25.55;12.43;;;8.50;99.90;;;;;;5109030;28;20639;-76
2022/01/13 11:35:26;;;;;;;22.33;11.55;;;8.20;99.90;;;;;;5090831;28;20160;-76
2022/01/13 11:37:52;;;;;;;28.80;10.73;;;7.80;99.90;;;;;;5108551;28;20190;-75
2022/01/13 11:40:27;;;;;;;24.48;10.18;;;7.30;99.90;;;;;;5108915;28;20163;-75
2022/01/13 11:42:55;;;;;;;19.42;10.90;;;7.80;99.90;;;;;;5129194;28;20168;-74
2022/01/13 11:45:22;;;;;;;23.42;10.50;;;7.80;99.90;;;;;;5129258;28;20163;-75
2022/01/13 11:47:52;;;;;;;16.58;8.82;;;7.80;99.90;;;;;;5129106;28;20242;-75
2022/01/13 11:50:23;;;;;;;16.55;8.63;;;8.00;99.90;;;;;;5110215;28;20189;-76
2022/01/13 11:52:52;;;;;;;15.88;8.82;;;8.80;99.90;;;;;;5100854;28;20197;-75
2022/01/13 11:55:24;;;;;;;14.20;7.65;;;9.20;99.90;;;;;;5130728;28;20159;-75
2022/01/13 11:57:52;;;;;;;15.88;7.72;;;9.10;99.90;;;;;;5108248;28;20203;-75
2022/01/13 12:00:17;;;;;;;27.98;8.70;;;9.80;99.90;;;;;;5117300;28;20214;-74
2022/01/13 12:02:44;;;;;;;14.68;7.03;;;10.40;99.40;;;;;;5124534;28;20177;-75
2022/01/13 12:05:25;;;;;;;12.65;7.00;;;10.20;99.90;;;;;;5090619;28;20225;-76
2022/01/13 12:07:58;;;;;;;13.27;6.80;;;10.20;99.00;;;;;;5090004;28;20218;-75
2022/01/13 12:10:24;;;;;;;12.18;6.53;;;10.20;99.00;;;;;;5108754;28;20179;-77
2022/01/13 12:12:51;;;;;;;12.70;6.88;;;10.20;99.20;;;;;;5113387;28;20510;-74
2022/01/13 12:15:25;;;;;;;13.38;5.55;;;10.30;99.30;;;;;;5107716;28;20776;-75
2022/01/13 12:17:58;;;;;;;10.35;6.22;;;10.80;98.20;;;;;;5125979;28;20190;-75
2022/01/13 12:23:43;;;;;;;10.88;6.40;;;10.10;98.10;;;;;;5131069;28;20162;-75
2022/01/13 12:26:32;;;;;;;10.52;4.88;;;10.30;97.90;;;;;;5131882;28;20166;-77
2022/01/13 12:29:11;;;;;;;13.63;5.75;;;10.40;97.40;;;;;;5116580;28;20206;-76
2022/01/13 12:31:54;;;;;;;9.18;5.35;;;9.90;97.20;;;;;;5123699;28;20175;-76
2022/01/13 12:34:48;;;;;;;8.18;4.90;;;8.90;97.10;;;;;;5113849;28;20240;-76
2022/01/13 12:37:14;;;;;;;10.18;4.45;;;8.50;97.90;;;;;;5101686;28;20643;-72
2022/01/13 12:39:47;;;;;;;10.13;4.75;;;8.30;97.80;;;;;;5113638;28;20198;-75
2022/01/13 12:42:16;;;;;;;6.10;3.88;;;7.90;98.70;;;;;;5132340;28;20185;-76
2022/01/13 12:47:30;;;;;;;8.63;3.85;;;6.60;99.80;;;;;;5132051;28;20592;-75
2022/01/13 12:49:56;;;;;;;9.00;4.70;;;6.10;99.00;;;;;;5113357;28;20213;-74
2022/01/13 12:52:24;;;;;;;6.00;3.40;;;5.50;99.90;;;;;;5119355;28;20171;-75
2022/01/13 12:54:51;;;;;;;9.38;4.03;;;5.40;99.90;;;;;;5093312;28;20187;-75
2022/01/13 12:57:17;;;;;;;13.70;4.20;;;5.40;99.90;;;;;;5111974;28;20250;-76
2022/01/13 12:59:45;;;;;;;7.50;3.17;;;5.70;99.90;;;;;;5143139;27;20228;-75
2022/01/13 13:02:10;;;;;;;10.98;5.05;;;5.80;99.90;;;;;;5115279;27;20193;-75
2022/01/13 13:04:38;;;;;;;6.35;3.60;;;5.60;99.90;;;;;;5143550;27;20632;-75
2022/01/13 13:07:07;;;;;;;15.55;3.95;;;5.60;99.90;;;;;;5124276;28;20202;-75
2022/01/13 13:09:33;;;;;;;7.47;3.58;;;5.50;99.90;;;;;;5119077;28;20218;-74
2022/01/13 13:12:03;;;;;;;13.68;3.30;;;5.50;99.90;;;;;;5109740;28;20174;-74
2022/01/13 13:17:37;;;;;;;5.82;3.67;;;5.50;99.90;;;;;;5129103;28;20217;-75